Time;durP1;ratioP1;P1;durP2;ratioP2;P2;SDS_P1;SDS_P2;PMS_P1;PMS_P2;Temp;Humidity;BMP_temperature;BMP_pressure;BME280_temperature;BME280_humidity;BME280_pressure;Samples;Min_cycle;Max_cycle;Signal;HPM_P1;HPM_P2
2023/01/19 08:32:03;;;;;;;9.60;5.40;;;2.10;99.90;;;;;;4894946;29;20247;-71
2023/01/19 08:34:30;;;;;;;14.30;6.53;;;2.10;99.90;;;;;;4880940;29;20218;-70
2023/01/19 08:36:57;;;;;;;16.20;6.07;;;2.20;99.90;;;;;;4870942;29;20246;-70
2023/01/19 08:39:24;;;;;;;14.50;6.97;;;2.30;99.90;;;;;;4879289;29;20214;-69
2023/01/19 08:41:51;;;;;;;15.40;6.40;;;2.40;99.90;;;;;;4876178;29;20211;-71
2023/01/19 08:44:17;;;;;;;15.90;6.40;;;2.40;99.90;;;;;;4860386;29;20227;-70
2023/01/19 08:46:44;;;;;;;14.07;6.80;;;2.40;99.90;;;;;;4885999;29;20258;-73
2023/01/19 08:49:11;;;;;;;14.93;5.73;;;2.50;99.90;;;;;;4898629;29;20210;-73
2023/01/19 08:51:38;;;;;;;13.13;6.43;;;2.40;99.90;;;;;;4898247;29;20213;-72
2023/01/19 08:54:04;;;;;;;12.37;6.33;;;2.40;99.90;;;;;;4898312;29;20217;-70
2023/01/19 08:56:31;;;;;;;18.47;7.43;;;2.40;99.90;;;;;;4899433;29;20209;-70
2023/01/19 08:58:58;;;;;;;15.03;6.63;;;2.30;99.90;;;;;;4898841;29;20233;-72
2023/01/19 09:01:24;;;;;;;14.23;7.13;;;2.40;99.90;;;;;;4899097;29;20576;-70
2023/01/19 09:03:52;;;;;;;15.50;6.37;;;2.40;99.90;;;;;;4899270;29;20209;-70
2023/01/19 09:06:18;;;;;;;14.67;6.50;;;2.40;99.90;;;;;;4899399;29;20210;-70
2023/01/19 09:08:45;;;;;;;19.93;7.53;;;2.50;99.90;;;;;;4899602;29;20241;-70
2023/01/19 09:11:12;;;;;;;13.77;5.60;;;2.60;99.90;;;;;;4899542;29;20213;-70
2023/01/19 09:13:38;;;;;;;13.00;6.03;;;2.70;99.90;;;;;;4899277;29;20217;-70
2023/01/19 09:16:06;;;;;;;25.83;7.17;;;2.60;99.90;;;;;;4899153;29;20213;-70
2023/01/19 09:18:33;;;;;;;12.57;5.43;;;2.70;99.90;;;;;;4899267;29;20238;-69
2023/01/19 09:21:00;;;;;;;22.83;6.47;;;2.60;99.90;;;;;;4899371;29;20301;-70
2023/01/19 09:23:26;;;;;;;13.67;6.30;;;2.70;99.90;;;;;;4899270;29;20790;-70
2023/01/19 09:25:55;;;;;;;17.83;6.47;;;2.80;99.90;;;;;;4899281;29;20669;-69
2023/01/19 09:28:22;;;;;;;13.07;5.47;;;2.90;99.90;;;;;;4899656;29;20230;-70
2023/01/19 09:30:50;;;;;;;16.80;7.23;;;2.90;99.90;;;;;;4899329;29;20308;-70
2023/01/19 09:33:18;;;;;;;18.60;7.97;;;2.80;99.90;;;;;;4915916;29;20692;-70
2023/01/19 09:35:47;;;;;;;19.50;6.67;;;2.80;99.90;;;;;;4915980;29;20212;-70
2023/01/19 09:38:17;;;;;;;25.97;6.83;;;2.90;99.90;;;;;;4915850;29;20249;-70
2023/01/19 09:40:47;;;;;;;18.70;5.90;;;3.00;99.90;;;;;;4915989;29;20687;-70
2023/01/19 09:43:21;;;;;;;20.43;6.13;;;3.00;99.90;;;;;;4916218;29;20216;-70
2023/01/19 09:45:52;;;;;;;15.63;6.30;;;3.00;99.90;;;;;;4919272;29;20215;-71
2023/01/19 09:48:31;;;;;;;20.00;6.73;;;3.00;99.90;;;;;;4919363;29;20231;-70
2023/01/19 09:51:02;;;;;;;15.97;5.53;;;3.20;99.90;;;;;;4919225;29;20205;-70
2023/01/19 09:53:40;;;;;;;11.60;5.43;;;3.30;99.90;;;;;;4919087;29;20213;-70
2023/01/19 09:56:12;;;;;;;15.73;6.13;;;3.50;99.90;;;;;;4919271;29;20213;-71
2023/01/19 09:58:39;;;;;;;16.60;6.77;;;3.40;99.90;;;;;;4918774;29;20237;-70
2023/01/19 10:01:19;;;;;;;13.00;5.53;;;3.40;99.90;;;;;;4918703;29;20214;-70
2023/01/19 10:03:46;;;;;;;13.77;6.03;;;3.40;99.90;;;;;;4919245;29;20220;-71
2023/01/19 10:06:14;;;;;;;17.77;5.33;;;3.30;99.90;;;;;;4919282;29;20241;-71
2023/01/19 10:08:46;;;;;;;9.67;5.10;;;3.20;99.90;;;;;;4919326;29;20318;-71
2023/01/19 10:11:24;;;;;;;11.27;4.97;;;3.20;99.90;;;;;;4919170;29;20661;-71
2023/01/19 10:13:53;;;;;;;13.40;5.07;;;3.10;99.90;;;;;;4918753;29;20630;-71
2023/01/19 10:16:30;;;;;;;13.30;5.13;;;3.10;99.90;;;;;;4919180;29;20308;-69
2023/01/19 10:19:02;;;;;;;16.63;5.50;;;2.90;99.90;;;;;;4918865;29;20239;-71
2023/01/19 10:21:35;;;;;;;12.57;4.37;;;2.90;99.90;;;;;;4919039;29;20217;-71
2023/01/19 10:24:06;;;;;;;14.13;4.90;;;2.80;99.90;;;;;;4919120;29;20206;-71
2023/01/19 10:26:36;;;;;;;13.37;4.97;;;2.90;99.90;;;;;;4918942;29;20213;-71
2023/01/19 10:29:06;;;;;;;11.63;5.27;;;3.10;99.90;;;;;;4919103;29;20206;-70
2023/01/19 10:31:37;;;;;;;11.07;4.90;;;3.20;99.90;;;;;;4918630;29;20228;-71
2023/01/19 10:34:04;;;;;;;10.50;4.73;;;3.10;99.90;;;;;;4918736;29;20209;-71
2023/01/19 10:36:36;;;;;;;12.97;5.37;;;3.00;99.90;;;;;;4918775;29;20214;-70
2023/01/19 10:39:04;;;;;;;12.97;6.50;;;3.00;99.90;;;;;;4918506;29;20596;-71
2023/01/19 10:41:41;;;;;;;11.33;5.53;;;3.00;99.90;;;;;;4918738;29;20213;-70
2023/01/19 10:44:09;;;;;;;9.07;3.60;;;3.00;99.90;;;;;;4918769;29;20272;-71
2023/01/19 10:46:43;;;;;;;14.57;5.23;;;3.00;99.90;;;;;;4918626;29;20237;-70
2023/01/19 10:49:25;;;;;;;12.80;5.27;;;3.10;99.90;;;;;;4918642;29;20219;-70
2023/01/19 10:51:52;;;;;;;13.87;5.47;;;3.10;99.90;;;;;;4918665;29;20213;-71
2023/01/19 10:54:21;;;;;;;15.80;4.53;;;3.40;99.90;;;;;;4918361;29;20661;-70
2023/01/19 10:56:53;;;;;;;15.60;5.70;;;3.40;99.90;;;;;;4918381;29;20593;-71
2023/01/19 10:59:35;;;;;;;11.93;5.27;;;3.20;99.90;;;;;;4918332;29;20628;-71
2023/01/19 11:02:17;;;;;;;11.40;4.47;;;3.20;99.90;;;;;;4918537;29;20216;-71
2023/01/19 11:04:44;;;;;;;13.87;4.80;;;3.10;99.90;;;;;;4918467;29;20209;-70
2023/01/19 11:07:18;;;;;;;13.70;5.17;;;3.10;99.90;;;;;;4918289;29;20233;-71
2023/01/19 11:09:46;;;;;;;10.10;4.90;;;3.00;99.90;;;;;;4918133;29;20209;-70
2023/01/19 11:12:18;;;;;;;9.53;4.60;;;3.10;99.90;;;;;;4918044;29;20212;-71
2023/01/19 11:14:46;;;;;;;14.47;4.17;;;3.20;99.90;;;;;;4918377;29;20209;-71
2023/01/19 11:17:23;;;;;;;11.17;4.00;;;3.20;99.90;;;;;;4918026;29;20240;-71
2023/01/19 11:19:56;;;;;;;11.33;3.80;;;3.00;99.90;;;;;;4918133;29;20209;-70
2023/01/19 11:22:27;;;;;;;15.13;5.40;;;3.00;99.90;;;;;;4917992;29;20232;-70
2023/01/19 11:24:58;;;;;;;14.90;4.50;;;2.90;99.90;;;;;;4917889;29;20210;-70
2023/01/19 11:27:26;;;;;;;12.77;4.80;;;2.90;99.90;;;;;;4917818;29;20233;-70
2023/01/19 11:30:04;;;;;;;12.10;4.57;;;3.10;99.90;;;;;;4917889;29;20265;-70
2023/01/19 11:32:35;;;;;;;16.93;6.30;;;3.20;99.90;;;;;;4917745;29;20216;-71
2023/01/19 11:35:03;;;;;;;15.03;5.80;;;3.30;99.90;;;;;;4917516;29;20296;-71
2023/01/19 11:37:33;;;;;;;15.80;5.17;;;3.40;99.90;;;;;;4917630;29;20614;-71
2023/01/19 11:40:03;;;;;;;10.53;5.00;;;3.60;99.90;;;;;;4918002;29;20210;-70
2023/01/19 11:42:35;;;;;;;16.50;6.10;;;3.70;99.90;;;;;;4917860;29;20213;-71
2023/01/19 11:45:07;;;;;;;12.00;5.30;;;3.80;99.90;;;;;;4917586;29;20214;-71
2023/01/19 11:47:41;;;;;;;12.57;4.97;;;3.90;99.90;;;;;;4917250;29;20311;-71
2023/01/19 11:50:15;;;;;;;12.63;5.40;;;3.90;99.90;;;;;;4917609;29;20212;-70
2023/01/19 11:52:45;;;;;;;11.10;5.27;;;3.80;99.90;;;;;;4917731;29;20209;-71
2023/01/19 11:55:19;;;;;;;12.77;5.57;;;3.60;99.90;;;;;;4917467;29;20210;-71
2023/01/19 11:57:50;;;;;;;14.17;5.73;;;3.60;99.90;;;;;;4916916;29;20231;-72
2023/01/19 12:00:27;;;;;;;11.40;5.30;;;3.50;99.90;;;;;;4917245;29;20209;-72
2023/01/19 12:03:00;;;;;;;8.33;4.70;;;3.50;99.90;;;;;;4917404;29;20213;-72
2023/01/19 12:05:31;;;;;;;11.37;5.40;;;3.50;99.90;;;;;;4917324;29;20550;-71
2023/01/19 12:08:02;;;;;;;15.90;5.57;;;3.60;99.90;;;;;;4916740;29;20233;-71
2023/01/19 12:10:34;;;;;;;14.93;6.07;;;3.80;99.90;;;;;;4917595;29;20210;-72
2023/01/19 12:13:02;;;;;;;12.53;5.07;;;4.00;99.90;;;;;;4917364;29;20245;-72
2023/01/19 12:15:35;;;;;;;16.97;5.70;;;4.10;99.90;;;;;;4917413;29;20209;-72
2023/01/19 12:18:06;;;;;;;14.67;5.63;;;4.10;99.90;;;;;;4916935;29;20589;-72
2023/01/19 12:20:37;;;;;;;15.33;5.30;;;4.00;99.90;;;;;;4917196;29;20209;-72
2023/01/19 12:23:14;;;;;;;9.37;4.83;;;4.10;99.90;;;;;;4917023;29;20336;-72
2023/01/19 12:25:50;;;;;;;13.10;5.23;;;4.20;99.90;;;;;;4917233;29;20212;-72
2023/01/19 12:28:18;;;;;;;12.30;5.77;;;4.40;99.90;;;;;;4917107;29;20323;-71
2023/01/19 12:30:45;;;;;;;12.10;5.17;;;4.40;99.90;;;;;;4916555;29;20229;-71
2023/01/19 12:33:33;;;;;;;12.00;4.90;;;4.50;99.90;;;;;;4916927;29;20679;-72
2023/01/19 12:36:02;;;;;;;19.87;5.40;;;4.60;99.90;;;;;;4917061;29;20338;-72
2023/01/19 12:38:46;;;;;;;17.00;6.60;;;4.80;99.90;;;;;;4916654;29;20329;-71
2023/01/19 12:41:22;;;;;;;10.50;5.77;;;4.90;99.90;;;;;;4916984;29;20210;-72
2023/01/19 12:44:09;;;;;;;11.10;5.67;;;4.90;99.90;;;;;;4916763;29;20213;-72
2023/01/19 12:46:37;;;;;;;11.20;4.57;;;5.10;99.90;;;;;;4916446;29;20588;-72
2023/01/19 12:49:10;;;;;;;11.50;5.07;;;5.20;99.90;;;;;;4916886;29;20216;-71
2023/01/19 12:51:38;;;;;;;8.93;4.10;;;5.20;99.90;;;;;;4916887;29;20214;-72
2023/01/19 12:54:08;;;;;;;9.90;4.27;;;5.00;99.90;;;;;;4916810;29;20233;-70
2023/01/19 12:56:37;;;;;;;9.17;4.63;;;5.00;99.90;;;;;;4916774;29;20228;-73
2023/01/19 12:59:05;;;;;;;12.93;4.83;;;4.90;99.90;;;;;;4916311;29;20244;-70
2023/01/19 13:01:32;;;;;;;10.70;5.00;;;4.90;99.90;;;;;;4916555;29;20688;-71
2023/01/19 13:04:01;;;;;;;9.60;4.87;;;5.00;99.90;;;;;;4900516;29;20562;-71
2023/01/19 13:07:04;;;;;;;12.27;5.30;;;5.20;99.90;;;;;;4896524;29;20214;-71
2023/01/19 13:09:34;;;;;;;9.50;4.77;;;5.10;99.90;;;;;;4894347;29;20273;-70
2023/01/19 13:12:21;;;;;;;11.70;5.43;;;5.10;99.90;;;;;;4896079;29;20214;-70
2023/01/19 13:14:49;;;;;;;9.00;4.77;;;5.40;99.90;;;;;;4877742;29;20218;-71
2023/01/19 13:17:26;;;;;;;7.97;4.50;;;5.40;99.90;;;;;;4876796;29;20714;-73
2023/01/19 13:20:01;;;;;;;9.73;4.13;;;5.50;99.90;;;;;;4879710;29;20249;-71
2023/01/19 13:23:02;;;;;;;7.87;4.47;;;5.30;99.90;;;;;;4885224;29;20213;-71
2023/01/19 13:25:34;;;;;;;11.67;5.23;;;5.30;99.90;;;;;;4918142;29;20213;-71
2023/01/19 13:28:06;;;;;;;13.07;5.03;;;5.10;99.90;;;;;;4918824;29;20641;-71
2023/01/19 13:30:35;;;;;;;7.57;4.10;;;5.00;99.90;;;;;;4918882;29;20228;-71
2023/01/19 13:33:09;;;;;;;14.83;4.90;;;5.10;99.90;;;;;;4917930;29;20221;-71
2023/01/19 13:35:36;;;;;;;9.87;4.57;;;5.10;99.90;;;;;;4918371;29;20688;-70
2023/01/19 13:38:04;;;;;;;8.77;3.97;;;5.10;99.90;;;;;;4895181;29;20233;-71
2023/01/19 13:40:38;;;;;;;13.40;4.80;;;5.20;99.90;;;;;;4899232;29;20206;-71
2023/01/19 13:43:11;;;;;;;12.73;5.00;;;5.20;99.90;;;;;;4906327;29;20609;-70
2023/01/19 13:45:40;;;;;;;8.57;3.93;;;5.10;99.90;;;;;;4918137;29;20665;-71
2023/01/19 13:48:12;;;;;;;8.07;4.37;;;5.20;99.90;;;;;;4917321;29;20226;-72
2023/01/19 13:50:39;;;;;;;13.17;4.93;;;5.10;99.90;;;;;;4918006;29;20220;-73
2023/01/19 13:53:17;;;;;;;9.63;4.53;;;5.10;99.90;;;;;;4918213;29;20301;-72
2023/01/19 13:55:46;;;;;;;11.10;4.70;;;5.10;99.90;;;;;;4905479;29;20206;-73
2023/01/19 13:58:22;;;;;;;12.53;4.60;;;5.00;99.90;;;;;;4917278;29;20230;-69
2023/01/19 14:00:49;;;;;;;6.50;3.77;;;5.00;99.90;;;;;;4917685;29;20613;-72
2023/01/19 14:03:20;;;;;;;8.67;4.10;;;4.90;99.90;;;;;;4917635;29;20206;-71
2023/01/19 14:05:50;;;;;;;9.73;4.20;;;4.90;99.90;;;;;;4918347;29;20216;-67
2023/01/19 14:08:18;;;;;;;11.73;4.57;;;4.90;99.90;;;;;;4880421;29;20227;-70
2023/01/19 14:10:47;;;;;;;10.10;4.50;;;4.80;99.90;;;;;;4880172;29;20566;-72
2023/01/19 14:13:17;;;;;;;11.43;4.80;;;4.90;99.90;;;;;;4896595;29;20214;-70
2023/01/19 14:15:45;;;;;;;9.17;4.43;;;5.00;99.90;;;;;;4918467;29;20210;-71
2023/01/19 14:18:24;;;;;;;6.30;3.73;;;5.00;99.90;;;;;;4917616;29;20259;-71
2023/01/19 14:20:56;;;;;;;11.07;4.80;;;5.10;99.90;;;;;;4918012;29;20213;-72
2023/01/19 14:23:39;;;;;;;9.13;4.23;;;5.10;99.90;;;;;;4922442;29;20232;-71
2023/01/19 14:29:07;;;;;;;11.10;4.37;;;5.20;99.90;;;;;;4953917;29;20231;-75
2023/01/19 14:31:43;;;;;;;9.80;3.70;;;5.40;99.90;;;;;;4954930;28;20291;-75
2023/01/19 14:34:31;;;;;;;8.20;3.90;;;5.30;99.90;;;;;;4949837;29;20686;-73
2023/01/19 14:36:58;;;;;;;7.13;3.40;;;5.10;99.90;;;;;;4939596;29;20231;-78
2023/01/19 14:39:28;;;;;;;10.27;4.00;;;5.20;99.90;;;;;;4935659;29;20243;-80
2023/01/19 14:41:59;;;;;;;8.30;3.87;;;5.00;99.90;;;;;;4937420;29;20212;-76
2023/01/19 14:44:30;;;;;;;6.30;3.37;;;5.00;99.90;;;;;;4937694;29;20205;-76
2023/01/19 14:46:58;;;;;;;5.50;3.07;;;4.80;99.90;;;;;;4937024;29;20231;-75
2023/01/19 14:49:30;;;;;;;6.87;3.50;;;4.80;99.90;;;;;;4937804;29;20212;-75
2023/01/19 14:51:57;;;;;;;7.30;3.37;;;4.70;99.90;;;;;;4937439;29;20575;-74
2023/01/19 14:54:31;;;;;;;7.20;3.70;;;4.60;99.90;;;;;;4937390;29;20714;-80
2023/01/19 14:56:59;;;;;;;10.37;3.60;;;4.70;99.90;;;;;;4937685;29;20238;-77
2023/01/19 14:59:26;;;;;;;7.33;3.20;;;4.70;99.90;;;;;;4937472;29;20703;-78
2023/01/19 15:01:53;;;;;;;14.77;3.53;;;4.70;99.90;;;;;;4938051;29;20587;-81
2023/01/19 15:04:20;;;;;;;9.40;3.77;;;4.60;99.90;;;;;;4937625;29;20219;-80
2023/01/19 15:06:47;;;;;;;10.80;3.60;;;4.60;99.90;;;;;;4936831;29;20229;-77
2023/01/19 15:09:14;;;;;;;9.93;4.30;;;4.60;99.90;;;;;;4937120;29;20244;-75
2023/01/19 15:11:43;;;;;;;5.87;3.60;;;4.70;99.90;;;;;;4936787;29;20204;-79
2023/01/19 15:14:14;;;;;;;8.43;3.57;;;4.60;99.90;;;;;;4937001;29;20307;-78
2023/01/19 15:16:41;;;;;;;10.60;4.27;;;4.60;99.90;;;;;;4936515;29;20220;-78
2023/01/19 15:19:13;;;;;;;8.47;4.20;;;4.50;99.90;;;;;;4936957;29;20587;-80
2023/01/19 15:21:41;;;;;;;8.77;3.77;;;4.30;99.90;;;;;;4936838;29;20209;-76
2023/01/19 15:24:09;;;;;;;8.23;4.13;;;4.30;99.90;;;;;;4923856;29;20261;-74
2023/01/19 15:26:38;;;;;;;14.73;4.70;;;4.30;99.90;;;;;;4921606;29;20236;-75
2023/01/19 15:29:21;;;;;;;8.13;4.30;;;4.30;99.90;;;;;;4935485;29;20216;-76
2023/01/19 15:31:48;;;;;;;9.07;4.33;;;4.20;99.90;;;;;;4935230;29;20661;-78
2023/01/19 15:34:15;;;;;;;7.27;4.23;;;4.00;99.90;;;;;;4935106;29;20220;-77
2023/01/19 15:36:42;;;;;;;12.50;5.77;;;4.10;99.90;;;;;;4935547;29;20699;-76
2023/01/19 15:39:24;;;;;;;10.30;4.20;;;4.00;99.90;;;;;;4890391;29;20248;-78
2023/01/19 15:41:52;;;;;;;9.80;4.60;;;3.90;99.90;;;;;;4924697;29;20224;-73
2023/01/19 15:44:20;;;;;;;10.50;4.77;;;3.80;99.90;;;;;;4928814;29;20702;-77
2023/01/19 15:46:47;;;;;;;13.57;4.90;;;3.80;99.90;;;;;;4934426;29;20225;-76
2023/01/19 15:49:14;;;;;;;9.63;4.87;;;3.80;99.90;;;;;;4936240;29;20223;-77
2023/01/19 15:51:41;;;;;;;10.50;5.63;;;3.70;99.90;;;;;;4936518;29;20213;-76
